Time;durP1;ratioP1;P1;durP2;ratioP2;P2;SDS_P1;SDS_P2;PMS_P1;PMS_P2;Temp;Humidity;BMP_temperature;BMP_pressure;BME280_temperature;BME280_humidity;BME280_pressure;Samples;Min_cycle;Max_cycle;Signal;HPM_P1;HPM_P2
2022/09/04 00:01:39;;;;;;;1.98;1.00;;;26.80;99.90;;;;;;5011750;28;20046;-48
2022/09/04 00:04:29;;;;;;;6.18;1.23;;;26.80;99.90;;;;;;5014234;28;20061;-46
2022/09/04 00:07:11;;;;;;;4.03;1.30;;;26.80;99.90;;;;;;5013971;28;20338;-45
2022/09/04 00:10:08;;;;;;;2.70;0.95;;;26.80;99.90;;;;;;5014126;28;20490;-46
2022/09/04 00:12:43;;;;;;;4.28;0.82;;;26.80;99.90;;;;;;5004750;28;20389;-46
2022/09/04 00:15:42;;;;;;;5.63;1.15;;;26.80;99.90;;;;;;5013991;28;20057;-46
2022/09/04 00:18:31;;;;;;;3.65;1.00;;;26.80;99.90;;;;;;5013959;28;20176;-46
2022/09/04 00:21:01;;;;;;;2.70;0.63;;;26.80;99.90;;;;;;5013730;28;20469;-47
2022/09/04 00:23:48;;;;;;;1.73;1.10;;;26.80;99.90;;;;;;5014022;28;20382;-45
2022/09/04 00:26:26;;;;;;;2.28;1.05;;;26.80;99.90;;;;;;5014000;28;20041;-46
2022/09/04 00:29:02;;;;;;;2.53;0.63;;;26.80;99.90;;;;;;5012733;28;20129;-45
2022/09/04 00:31:47;;;;;;;2.40;0.73;;;26.80;99.90;;;;;;5013856;28;20025;-46
2022/09/04 00:35:04;;;;;;;2.28;1.08;;;26.70;99.90;;;;;;5013714;28;20053;-46
2022/09/04 00:37:43;;;;;;;4.55;0.68;;;26.70;99.90;;;;;;4933869;29;20035;-46
2022/09/04 00:40:43;;;;;;;3.50;0.90;;;26.70;99.90;;;;;;4933608;29;20419;-46
2022/09/04 00:43:33;;;;;;;1.23;0.70;;;26.70;99.90;;;;;;5003845;28;20034;-46
2022/09/04 00:46:12;;;;;;;5.30;3.63;;;26.70;99.90;;;;;;5012111;28;20033;-46
2022/09/04 00:49:23;;;;;;;3.55;1.48;;;26.70;99.90;;;;;;5013333;28;20168;-47
2022/09/04 00:51:51;;;;;;;4.18;1.23;;;26.60;99.90;;;;;;4993100;28;20030;-47
2022/09/04 00:54:46;;;;;;;3.08;1.45;;;26.60;99.90;;;;;;5013198;28;20030;-46
2022/09/04 00:57:34;;;;;;;5.10;2.35;;;26.60;99.90;;;;;;5013163;28;20025;-46
2022/09/04 01:00:18;;;;;;;2.65;1.98;;;26.60;99.90;;;;;;5013610;28;20072;-47
2022/09/04 01:02:55;;;;;;;6.90;5.28;;;26.60;99.90;;;;;;5013180;28;20113;-46
2022/09/04 01:05:33;;;;;;;;;;;26.60;99.90;;;;;;5013348;28;20433;-46
2022/09/04 01:07:59;;;;;;;4.13;1.27;;;26.60;99.90;;;;;;5013073;28;19949;-47
2022/09/04 01:10:46;;;;;;;3.17;2.58;;;26.60;99.90;;;;;;5012926;28;20120;-48
2022/09/04 01:13:17;;;;;;;3.92;1.90;;;26.60;99.90;;;;;;5012996;28;20092;-47
2022/09/04 01:15:51;;;;;;;5.13;1.20;;;26.60;99.90;;;;;;5012790;28;20125;-47
2022/09/04 01:18:28;;;;;;;3.25;1.30;;;26.60;99.90;;;;;;5012770;28;20022;-47
2022/09/04 01:21:35;;;;;;;2.17;1.27;;;26.60;99.90;;;;;;5012778;28;20049;-46
2022/09/04 01:24:24;;;;;;;4.00;1.25;;;26.60;99.90;;;;;;4974115;28;20501;-46
2022/09/04 01:27:28;;;;;;;2.40;1.27;;;26.60;99.90;;;;;;4975413;28;20038;-46
2022/09/04 01:30:00;;;;;;;3.67;1.20;;;26.60;99.90;;;;;;4981981;28;20041;-46
2022/09/04 01:32:44;;;;;;;2.15;0.88;;;26.60;99.90;;;;;;5012505;28;20030;-46
2022/09/04 01:35:40;;;;;;;8.32;0.80;;;26.60;99.90;;;;;;5012387;28;20022;-47
2022/09/04 01:38:32;;;;;;;3.08;1.10;;;26.60;99.90;;;;;;5012713;28;20390;-46
2022/09/04 01:41:10;;;;;;;2.20;0.88;;;26.50;99.90;;;;;;5012369;28;20580;-47
2022/09/04 01:43:36;;;;;;;3.88;0.63;;;26.60;99.90;;;;;;5012499;28;20029;-46
2022/09/04 01:46:28;;;;;;;3.15;1.10;;;26.50;99.90;;;;;;5012264;28;20022;-46
2022/09/04 01:49:19;;;;;;;3.60;0.90;;;26.60;99.90;;;;;;5008564;28;20046;-46
2022/09/04 01:51:57;;;;;;;3.53;0.98;;;26.60;99.90;;;;;;5011076;28;20021;-47
2022/09/04 01:54:41;;;;;;;2.28;0.70;;;26.50;99.90;;;;;;5012293;28;20018;-47
2022/09/04 01:57:07;;;;;;;5.38;0.98;;;26.50;99.90;;;;;;5011736;28;20030;-47
2022/09/04 01:59:53;;;;;;;2.92;0.95;;;26.60;99.90;;;;;;5012576;28;20316;-47
2022/09/04 02:02:35;;;;;;;4.88;0.88;;;26.60;99.90;;;;;;5012024;28;20026;-47
2022/09/04 02:05:16;;;;;;;1.90;0.80;;;26.60;99.90;;;;;;5012081;28;20040;-47
2022/09/04 02:08:01;;;;;;;4.05;0.90;;;26.60;99.90;;;;;;5011730;28;20042;-47
2022/09/04 02:10:30;;;;;;;4.47;1.15;;;26.50;99.90;;;;;;5011820;28;20048;-47
2022/09/04 02:13:32;;;;;;;8.32;1.15;;;26.50;99.90;;;;;;5011826;28;20061;-47
2022/09/04 02:16:04;;;;;;;3.05;1.10;;;26.50;99.90;;;;;;5011577;28;20036;-46
2022/09/04 02:18:43;;;;;;;1.45;0.65;;;26.50;99.90;;;;;;5011808;28;20018;-48
2022/09/04 02:21:25;;;;;;;5.53;1.27;;;26.50;99.90;;;;;;5011944;28;20057;-47
2022/09/04 02:24:19;;;;;;;5.22;1.08;;;26.50;99.90;;;;;;5011568;28;20073;-47
2022/09/04 02:27:07;;;;;;;3.92;1.10;;;26.50;99.90;;;;;;5011572;28;20484;-47
2022/09/04 02:29:43;;;;;;;3.20;0.85;;;26.50;99.90;;;;;;5011669;28;20091;-47
2022/09/04 02:32:43;;;;;;;3.33;0.80;;;26.50;99.90;;;;;;5010592;28;20041;-47
2022/09/04 02:35:30;;;;;;;4.88;0.63;;;26.50;99.90;;;;;;5011951;28;20022;-47
2022/09/04 02:38:01;;;;;;;4.32;0.80;;;26.40;99.90;;;;;;5011573;28;20435;-47
2022/09/04 02:40:27;;;;;;;2.92;0.65;;;26.40;99.90;;;;;;5011308;28;20042;-47
2022/09/04 02:43:18;;;;;;;5.57;0.90;;;26.40;99.90;;;;;;5011422;28;20482;-47
2022/09/04 02:45:58;;;;;;;5.15;1.20;;;26.40;99.90;;;;;;5011265;28;20029;-47
2022/09/04 02:48:36;;;;;;;4.65;1.23;;;26.40;99.90;;;;;;5011237;28;20042;-47
2022/09/04 02:51:27;;;;;;;13.93;1.88;;;26.40;99.90;;;;;;5011281;28;20033;-47
2022/09/04 02:54:05;;;;;;;5.80;1.10;;;26.40;99.90;;;;;;5011309;28;20485;-47
2022/09/04 02:57:02;;;;;;;3.53;1.10;;;26.30;99.90;;;;;;5011205;28;21139;-46
2022/09/04 02:59:38;;;;;;;4.05;1.27;;;26.30;99.90;;;;;;5011618;28;20042;-46
2022/09/04 03:02:14;;;;;;;4.03;1.52;;;26.30;99.90;;;;;;5011196;28;20033;-46
2022/09/04 03:04:53;;;;;;;2.20;1.48;;;26.30;99.90;;;;;;5011544;28;20109;-46
2022/09/04 03:07:29;;;;;;;6.90;1.20;;;26.30;99.90;;;;;;5011088;28;20030;-47
2022/09/04 03:10:05;;;;;;;3.75;0.98;;;26.30;99.90;;;;;;5014302;28;20048;-46
2022/09/04 03:12:59;;;;;;;3.90;0.77;;;26.30;99.90;;;;;;5015179;28;20080;-46
2022/09/04 03:15:37;;;;;;;2.55;0.63;;;26.20;99.90;;;;;;5004360;28;20033;-46
2022/09/04 03:18:24;;;;;;;4.95;1.00;;;26.20;99.90;;;;;;5015023;28;20406;-47
2022/09/04 03:21:38;;;;;;;4.53;0.90;;;26.20;99.90;;;;;;5014916;28;20038;-47
2022/09/04 03:24:21;;;;;;;1.85;0.85;;;26.20;99.90;;;;;;4935138;29;20113;-46
2022/09/04 03:27:05;;;;;;;3.08;0.82;;;26.20;99.90;;;;;;5014837;28;20032;-46
2022/09/04 03:30:14;;;;;;;4.82;1.10;;;26.20;99.90;;;;;;5013624;28;20065;-46
2022/09/04 03:32:49;;;;;;;3.20;1.33;;;26.20;99.90;;;;;;5014240;28;20109;-46
2022/09/04 03:35:43;;;;;;;4.57;1.67;;;26.10;99.90;;;;;;5014977;28;20025;-47
2022/09/04 03:38:27;;;;;;;3.78;0.82;;;26.20;99.90;;;;;;4985667;28;20037;-47
2022/09/04 03:41:14;;;;;;;5.40;1.02;;;26.10;99.90;;;;;;5014483;28;20103;-46
2022/09/04 03:44:02;;;;;;;;;;;26.10;99.90;;;;;;5014987;28;20034;-47
2022/09/04 03:46:52;;;;;;;4.78;0.95;;;26.10;99.90;;;;;;5014388;28;19906;-46
2022/09/04 03:49:20;;;;;;;8.50;1.55;;;26.10;99.90;;;;;;5014612;28;20393;-47
2022/09/04 03:52:10;;;;;;;3.15;1.05;;;26.10;99.90;;;;;;5014398;28;20276;-47
2022/09/04 03:55:07;;;;;;;5.50;0.80;;;26.10;99.90;;;;;;5014341;28;20105;-46
2022/09/04 03:58:37;;;;;;;3.65;1.17;;;26.10;99.90;;;;;;5014391;28;20022;-47
2022/09/04 04:01:26;;;;;;;3.08;0.93;;;26.10;99.90;;;;;;4935119;29;20058;-46
2022/09/04 04:04:16;;;;;;;1.95;0.80;;;26.10;99.90;;;;;;5014184;28;20030;-47
2022/09/04 04:07:00;;;;;;;9.40;1.92;;;26.10;99.90;;;;;;5012929;28;20026;-47
2022/09/04 04:09:34;;;;;;;6.90;2.00;;;26.10;99.90;;;;;;5014120;28;20547;-47
2022/09/04 04:12:26;;;;;;;7.68;1.75;;;26.00;99.90;;;;;;5014165;28;20104;-47
2022/09/04 04:15:30;;;;;;;5.45;1.50;;;25.90;99.90;;;;;;5014095;28;20026;-46
2022/09/04 04:17:56;;;;;;;6.78;1.83;;;25.80;99.90;;;;;;5013501;28;20349;-47
2022/09/04 04:20:40;;;;;;;11.65;2.17;;;25.70;99.90;;;;;;5013490;28;20481;-46
2022/09/04 04:23:17;;;;;;;5.75;1.33;;;25.60;99.90;;;;;;5013657;28;20474;-46
2022/09/04 04:26:09;;;;;;;2.35;1.23;;;25.60;99.90;;;;;;5013805;28;20030;-46
2022/09/04 04:28:58;;;;;;;5.00;1.08;;;25.60;99.90;;;;;;5013589;28;20125;-50
2022/09/04 04:32:03;;;;;;;1.85;0.85;;;25.60;99.90;;;;;;5013747;28;20025;-47
2022/09/04 04:34:42;;;;;;;3.58;1.33;;;25.60;99.90;;;;;;5013620;28;20044;-46
2022/09/04 04:37:20;;;;;;;3.33;1.10;;;25.70;99.90;;;;;;5013702;28;20424;-46
2022/09/04 04:39:51;;;;;;;3.22;1.33;;;25.70;99.90;;;;;;5013776;28;20034;-46
2022/09/04 04:42:44;;;;;;;7.88;1.20;;;25.70;99.90;;;;;;5013826;28;20076;-47
2022/09/04 04:45:50;;;;;;;9.93;2.38;;;25.70;99.90;;;;;;5013452;28;20034;-46
2022/09/04 04:48:40;;;;;;;6.47;1.30;;;25.70;99.90;;;;;;5013396;28;20038;-46
2022/09/04 04:51:11;;;;;;;6.43;1.60;;;25.60;99.90;;;;;;5013269;28;20137;-46
2022/09/04 04:54:18;;;;;;;10.70;2.10;;;25.50;99.90;;;;;;5013282;28;20092;-48
2022/09/04 04:56:56;;;;;;;10.30;2.00;;;25.40;99.90;;;;;;5013266;28;20088;-46
2022/09/04 04:59:30;;;;;;;9.93;1.75;;;25.40;99.90;;;;;;5012908;28;20038;-47
2022/09/04 05:02:03;;;;;;;7.20;1.83;;;25.30;99.90;;;;;;5013099;28;20034;-46
2022/09/04 05:05:01;;;;;;;5.55;1.60;;;25.30;99.90;;;;;;5012980;28;20038;-46
2022/09/04 05:07:58;;;;;;;7.70;2.33;;;25.30;99.90;;;;;;5012880;28;20164;-46
2022/09/04 05:10:42;;;;;;;5.07;1.27;;;25.20;99.90;;;;;;5012933;28;20470;-47
2022/09/04 05:13:22;;;;;;;7.00;1.63;;;25.20;99.90;;;;;;5013035;28;20060;-46
2022/09/04 05:16:06;;;;;;;5.63;1.40;;;25.20;99.90;;;;;;5012983;28;20096;-47
2022/09/04 05:18:57;;;;;;;2.42;1.52;;;25.20;99.90;;;;;;5012751;28;20014;-46
2022/09/04 05:21:36;;;;;;;8.77;5.30;;;25.30;99.90;;;;;;5012788;28;20025;-47
2022/09/04 05:24:16;;;;;;;5.30;1.50;;;25.30;99.90;;;;;;5012641;28;20029;-47
2022/09/04 05:26:45;;;;;;;2.95;1.58;;;25.30;99.90;;;;;;5012483;28;20061;-47
2022/09/04 05:29:31;;;;;;;14.32;2.78;;;25.40;99.90;;;;;;5012529;28;20038;-46
2022/09/04 05:32:00;;;;;;;14.40;5.55;;;25.40;99.90;;;;;;5011859;28;20024;-47
2022/09/04 05:35:04;;;;;;;10.00;3.13;;;25.40;99.90;;;;;;5012505;28;20026;-48
2022/09/04 05:38:07;;;;;;;21.27;7.22;;;25.30;99.90;;;;;;5012383;28;20022;-47
2022/09/04 05:41:03;;;;;;;9.20;2.90;;;25.20;99.90;;;;;;5012252;28;20029;-47
2022/09/04 05:43:56;;;;;;;10.73;2.73;;;25.20;99.90;;;;;;5012332;28;20030;-47
2022/09/04 05:47:06;;;;;;;11.40;2.80;;;25.10;99.90;;;;;;5012188;28;20021;-46
2022/09/04 05:49:53;;;;;;;17.63;7.78;;;25.00;99.90;;;;;;5009363;28;20073;-47
2022/09/04 05:52:40;;;;;;;11.15;3.20;;;25.00;99.90;;;;;;5012301;28;20017;-46
2022/09/04 05:55:30;;;;;;;20.77;6.05;;;24.80;99.90;;;;;;5012141;28;20496;-47
2022/09/04 05:58:19;;;;;;;12.25;2.50;;;24.70;99.90;;;;;;5012151;28;20420;-47
2022/09/04 06:01:03;;;;;;;8.40;2.65;;;24.70;99.90;;;;;;5011292;28;20115;-47
2022/09/04 06:04:06;;;;;;;7.35;3.45;;;24.60;99.90;;;;;;5011924;28;20514;-47
2022/09/04 06:06:50;;;;;;;11.88;2.33;;;24.50;99.90;;;;;;5011717;28;20481;-47
2022/09/04 06:09:42;;;;;;;18.80;2.45;;;24.50;99.90;;;;;;5011924;28;20034;-47
2022/09/04 06:12:22;;;;;;;13.95;2.67;;;24.40;99.90;;;;;;4999563;28;20082;-47
2022/09/04 06:15:07;;;;;;;14.50;4.90;;;24.40;99.90;;;;;;5011838;28;20030;-47
2022/09/04 06:17:59;;;;;;;15.15;6.75;;;24.30;99.90;;;;;;5011706;28;20119;-47
2022/09/04 06:20:32;;;;;;;21.42;10.60;;;24.30;99.90;;;;;;5011653;28;20078;-47
2022/09/04 06:23:14;;;;;;;34.58;13.88;;;24.30;99.90;;;;;;5011547;28;20022;-46
2022/09/04 06:26:00;;;;;;;17.48;4.45;;;24.30;99.90;;;;;;5011564;28;20032;-47
2022/09/04 06:29:01;;;;;;;11.52;3.33;;;24.30;99.90;;;;;;5011554;28;20549;-47
2022/09/04 06:31:49;;;;;;;10.07;3.70;;;24.20;99.90;;;;;;5011560;28;20022;-47
2022/09/04 06:34:33;;;;;;;;;;;24.20;99.90;;;;;;5012112;28;20208;-47
2022/09/04 06:37:29;;;;;;;16.15;6.70;;;24.20;99.90;;;;;;5011443;28;20415;-46
2022/09/04 06:40:20;;;;;;;9.20;3.35;;;24.20;99.90;;;;;;5011351;28;20037;-46
2022/09/04 06:42:46;;;;;;;14.30;2.92;;;24.20;99.90;;;;;;5011538;28;20029;-46
2022/09/04 06:45:34;;;;;;;11.25;3.00;;;24.20;99.90;;;;;;5011296;28;20116;-47
2022/09/04 06:48:34;;;;;;;13.35;3.65;;;24.30;99.90;;;;;;5009418;28;20033;-46
2022/09/04 06:51:27;;;;;;;9.95;2.42;;;24.40;99.90;;;;;;5014849;28;20037;-47
2022/09/04 06:54:26;;;;;;;12.30;2.72;;;24.40;99.90;;;;;;5012773;28;20125;-46
2022/09/04 06:57:03;;;;;;;14.75;4.93;;;24.50;99.90;;;;;;5009052;28;20501;-46
2022/09/04 06:59:38;;;;;;;13.93;4.03;;;24.50;99.90;;;;;;5011072;28;20101;-47
2022/09/04 07:02:14;;;;;;;15.35;6.25;;;24.60;99.90;;;;;;5010803;28;20129;-46
2022/09/04 07:04:52;;;;;;;14.15;4.25;;;24.70;99.90;;;;;;5009594;28;20068;-47
2022/09/04 07:07:17;;;;;;;;;;;24.70;99.90;;;;;;5011461;28;20045;-46
2022/09/04 07:09:48;;;;;;;13.80;7.25;;;24.80;99.90;;;;;;5011178;28;19905;-47
2022/09/04 07:12:13;;;;;;;23.35;6.90;;;24.90;99.90;;;;;;5011188;28;20482;-46
2022/09/04 07:15:13;;;;;;;12.35;6.10;;;25.00;99.90;;;;;;5011001;28;20026;-47
2022/09/04 07:17:54;;;;;;;11.75;3.50;;;25.00;99.90;;;;;;5011217;28;20034;-46
2022/09/04 07:20:54;;;;;;;11.77;3.22;;;25.00;99.90;;;;;;5010968;28;20026;-46
2022/09/04 07:24:02;;;;;;;12.70;3.85;;;25.10;99.90;;;;;;5011040;28;20025;-46
2022/09/04 07:26:46;;;;;;;17.35;4.32;;;25.20;99.90;;;;;;5000169;28;20045;-46
2022/09/04 07:29:21;;;;;;;22.27;6.43;;;25.20;99.90;;;;;;5010849;28;20100;-46
2022/09/04 07:32:01;;;;;;;18.20;5.60;;;25.30;99.90;;;;;;5010938;28;20022;-46
2022/09/04 07:34:44;;;;;;;13.68;4.00;;;25.30;99.90;;;;;;5010897;28;20029;-46
2022/09/04 07:37:13;;;;;;;9.55;3.78;;;25.30;99.90;;;;;;5010902;28;20030;-46
2022/09/04 07:39:54;;;;;;;21.50;10.20;;;25.30;99.90;;;;;;5010893;28;20540;-46
2022/09/04 07:42:30;;;;;;;11.45;4.10;;;25.40;99.90;;;;;;5010834;28;20040;-46
2022/09/04 07:45:05;;;;;;;10.48;3.78;;;25.40;99.90;;;;;;5010979;28;20073;-46
2022/09/04 07:47:48;;;;;;;13.63;3.13;;;25.50;99.90;;;;;;5010722;28;20112;-46
2022/09/04 07:50:39;;;;;;;12.63;3.42;;;25.50;99.90;;;;;;5010908;28;20028;-46
2022/09/04 07:53:18;;;;;;;12.43;4.53;;;25.60;99.90;;;;;;5010542;28;20428;-46
2022/09/04 07:56:01;;;;;;;9.20;3.47;;;25.60;99.90;;;;;;5013209;28;20034;-46
2022/09/04 07:59:08;;;;;;;5.53;1.63;;;25.70;99.90;;;;;;5014603;28;20056;-46
2022/09/04 08:01:45;;;;;;;9.93;5.90;;;25.70;99.90;;;;;;4992253;28;20099;-46
2022/09/04 08:04:32;;;;;;;12.57;4.00;;;25.70;99.90;;;;;;5014240;28;20439;-46
2022/09/04 08:06:59;;;;;;;10.98;3.47;;;25.80;99.90;;;;;;5014446;28;20026;-46
2022/09/04 08:09:59;;;;;;;9.27;4.43;;;25.90;99.90;;;;;;5014382;28;20026;-46
2022/09/04 08:12:43;;;;;;;8.73;4.07;;;25.90;99.90;;;;;;5014348;28;20065;-46
2022/09/04 08:15:45;;;;;;;6.38;2.13;;;25.90;99.90;;;;;;5013928;28;20053;-46
2022/09/04 08:18:35;;;;;;;10.57;6.07;;;26.00;99.90;;;;;;5012724;28;20548;-46
2022/09/04 08:21:33;;;;;;;10.98;5.05;;;26.10;99.90;;;;;;5013888;28;20030;-46
2022/09/04 08:24:08;;;;;;;5.25;2.60;;;26.10;99.90;;;;;;5006973;28;20501;-46
2022/09/04 08:27:02;;;;;;;7.07;2.47;;;26.10;99.90;;;;;;5013849;28;20029;-46
2022/09/04 08:29:41;;;;;;;4.45;1.90;;;26.10;99.90;;;;;;5014168;28;20037;-46
2022/09/04 08:32:30;;;;;;;10.48;4.43;;;26.20;99.90;;;;;;5013829;28;20095;-46
2022/09/04 08:35:34;;;;;;;11.40;4.55;;;26.20;99.90;;;;;;5013856;28;20066;-46
2022/09/04 08:38:17;;;;;;;8.23;2.13;;;26.20;99.90;;;;;;5013858;28;20022;-46
2022/09/04 08:41:18;;;;;;;8.90;2.35;;;26.20;99.90;;;;;;5013451;28;20033;-46
2022/09/04 08:43:59;;;;;;;6.97;2.10;;;26.30;99.90;;;;;;4933605;29;20031;-46
2022/09/04 08:47:00;;;;;;;6.18;2.70;;;26.30;99.90;;;;;;5005036;28;20038;-46
2022/09/04 08:49:52;;;;;;;9.32;2.20;;;26.30;99.90;;;;;;5012329;28;20571;-46
2022/09/04 08:52:43;;;;;;;4.40;1.70;;;26.30;99.90;;;;;;5013259;28;20076;-46
2022/09/04 08:55:22;;;;;;;10.80;2.50;;;26.30;99.90;;;;;;5013199;28;20032;-46
2022/09/04 08:57:56;;;;;;;11.73;3.42;;;26.30;99.90;;;;;;5013202;28;20022;-46
2022/09/04 09:00:37;;;;;;;10.10;2.35;;;26.30;99.90;;;;;;5012936;28;20064;-47
2022/09/04 09:03:08;;;;;;;8.13;2.00;;;26.40;99.90;;;;;;5013051;28;20018;-46
2022/09/04 09:05:58;;;;;;;4.97;1.75;;;26.40;99.90;;;;;;5012563;28;20073;-46
2022/09/04 09:08:40;;;;;;;7.10;1.80;;;26.40;99.90;;;;;;5012836;28;20042;-46
2022/09/04 09:11:40;;;;;;;7.25;2.05;;;26.40;99.90;;;;;;5012943;28;20087;-47
2022/09/04 09:14:33;;;;;;;7.15;2.38;;;26.40;99.90;;;;;;5012982;28;20037;-46
2022/09/04 09:17:31;;;;;;;12.25;2.22;;;26.40;99.90;;;;;;5013011;28;20034;-46
2022/09/04 09:20:18;;;;;;;3.78;1.70;;;26.50;99.90;;;;;;5012790;28;20029;-46
2022/09/04 09:23:02;;;;;;;7.93;2.05;;;26.50;99.90;;;;;;5012836;28;20528;-46
2022/09/04 09:26:09;;;;;;;6.63;2.67;;;26.50;99.90;;;;;;5013058;28;20041;-46
2022/09/04 09:28:56;;;;;;;3.92;1.77;;;26.50;99.90;;;;;;5011951;28;20402;-46
2022/09/04 09:31:41;;;;;;;;;;;26.60;99.90;;;;;;5011666;28;20145;-46
2022/09/04 09:34:38;;;;;;;5.93;1.45;;;26.60;99.90;;;;;;5012494;28;19922;-46
2022/09/04 09:37:58;;;;;;;6.88;1.80;;;26.60;99.90;;;;;;5012769;28;20030;-46
2022/09/04 09:40:33;;;;;;;7.15;1.75;;;26.60;99.90;;;;;;4972263;28;20046;-47
2022/09/04 09:43:32;;;;;;;4.82;1.58;;;26.70;99.90;;;;;;5013049;28;20030;-46
2022/09/04 09:46:20;;;;;;;6.22;1.40;;;26.70;99.90;;;;;;5012352;28;20073;-46
2022/09/04 09:49:01;;;;;;;;;;;26.70;99.90;;;;;;5012761;28;20132;-46
2022/09/04 09:51:51;;;;;;;6.03;1.70;;;26.80;99.90;;;;;;5012542;28;19912;-46
2022/09/04 09:54:48;;;;;;;4.25;1.70;;;26.80;99.90;;;;;;5012422;28;20138;-46
2022/09/04 09:57:26;;;;;;;7.13;1.95;;;26.90;99.90;;;;;;5012254;28;20446;-46
2022/09/04 10:00:03;;;;;;;20.77;13.65;;;26.90;99.90;;;;;;5012182;28;20054;-46
2022/09/04 10:02:53;;;;;;;11.40;4.68;;;27.00;99.90;;;;;;5012140;28;20029;-46
2022/09/04 10:05:46;;;;;;;4.45;2.38;;;27.00;99.90;;;;;;5011103;28;20026;-46
2022/09/04 10:08:48;;;;;;;5.95;2.85;;;27.10;99.90;;;;;;5012016;28;20042;-46
2022/09/04 10:11:43;;;;;;;4.72;1.83;;;27.10;99.90;;;;;;5011968;28;20045;-47
2022/09/04 10:14:35;;;;;;;10.15;2.45;;;27.20;99.90;;;;;;5011927;28;20026;-47
2022/09/04 10:17:21;;;;;;;7.95;5.10;;;27.30;99.90;;;;;;5011710;28;20026;-46
2022/09/04 10:20:23;;;;;;;26.05;18.00;;;27.30;99.90;;;;;;5011825;28;20378;-46
2022/09/04 10:23:04;;;;;;;10.85;6.65;;;27.30;99.90;;;;;;5011956;28;20057;-47
2022/09/04 10:25:36;;;;;;;6.97;4.82;;;27.40;99.90;;;;;;5011742;28;20030;-47
2022/09/04 10:28:20;;;;;;;8.38;2.70;;;27.40;99.90;;;;;;5011829;28;20108;-46
2022/09/04 10:31:07;;;;;;;6.47;3.75;;;27.40;99.90;;;;;;5011588;28;20018;-47
2022/09/04 10:34:06;;;;;;;9.13;4.93;;;27.50;99.90;;;;;;5011943;28;20026;-47
2022/09/04 10:36:34;;;;;;;7.60;2.78;;;27.50;99.90;;;;;;5011739;28;20105;-47
2022/09/04 10:42:30;;;;;;;8.80;3.15;;;27.50;99.90;;;;;;5011642;28;20045;-47
2022/09/04 10:45:16;;;;;;;4.28;2.53;;;27.60;99.90;;;;;;5011770;28;20108;-47
2022/09/04 10:47:54;;;;;;;6.60;2.92;;;27.60;99.90;;;;;;5011490;28;20040;-47
2022/09/04 10:50:35;;;;;;;6.40;1.98;;;27.60;99.90;;;;;;5011433;28;20105;-47
2022/09/04 10:53:19;;;;;;;7.90;2.53;;;27.60;99.90;;;;;;5011523;28;20032;-47
2022/09/04 10:56:11;;;;;;;5.15;1.95;;;27.70;99.90;;;;;;5010129;28;20076;-47
2022/09/04 10:58:49;;;;;;;7.65;2.22;;;27.70;99.90;;;;;;5011389;28;20234;-47
2022/09/04 11:01:53;;;;;;;6.97;2.03;;;27.70;99.90;;;;;;5011551;28;20042;-47
2022/09/04 11:04:19;;;;;;;4.32;1.85;;;27.80;99.90;;;;;;4975718;28;20033;-47
2022/09/04 11:07:14;;;;;;;7.30;3.58;;;27.80;99.90;;;;;;5011154;28;20352;-47
2022/09/04 11:10:17;;;;;;;9.40;5.20;;;27.80;99.90;;;;;;5011192;28;20044;-47
2022/09/04 11:13:08;;;;;;;10.88;3.70;;;27.90;99.90;;;;;;5011701;28;20065;-46
2022/09/04 11:15:58;;;;;;;7.32;3.03;;;27.90;99.90;;;;;;5011500;28;20085;-47
2022/09/04 11:18:52;;;;;;;6.53;2.25;;;28.00;99.90;;;;;;5011114;28;20030;-46
2022/09/04 11:21:42;;;;;;;6.43;1.73;;;28.00;99.90;;;;;;5011070;28;20088;-46
2022/09/04 11:24:32;;;;;;;5.55;2.78;;;28.00;99.90;;;;;;5011386;28;20022;-46
2022/09/04 11:27:35;;;;;;;6.45;2.28;;;28.00;99.90;;;;;;5011018;28;20049;-46
2022/09/04 11:30:15;;;;;;;7.57;2.78;;;28.10;99.90;;;;;;5012563;28;20032;-46
2022/09/04 11:33:05;;;;;;;8.82;1.52;;;28.10;99.90;;;;;;5014820;28;20033;-47
2022/09/04 11:35:40;;;;;;;4.00;1.58;;;28.10;99.90;;;;;;5015470;28;20018;-46
2022/09/04 11:38:16;;;;;;;8.13;2.13;;;28.20;99.90;;;;;;5015143;28;20470;-46
2022/09/04 11:41:27;;;;;;;4.82;2.38;;;28.30;99.90;;;;;;5014813;28;20036;-46
2022/09/04 11:44:26;;;;;;;5.45;3.35;;;28.30;99.90;;;;;;5014955;28;20026;-46
2022/09/04 11:47:11;;;;;;;14.25;7.88;;;28.40;99.90;;;;;;5014599;28;20029;-46
2022/09/04 11:49:57;;;;;;;9.30;4.15;;;28.40;99.90;;;;;;5014726;28;20122;-46
2022/09/04 11:52:33;;;;;;;8.23;3.87;;;28.50;99.90;;;;;;5014685;28;20033;-46
2022/09/04 11:55:32;;;;;;;9.15;2.75;;;28.50;99.90;;;;;;5014620;28;20036;-46
2022/09/04 11:58:27;;;;;;;5.38;2.53;;;28.60;99.90;;;;;;5014623;28;20018;-46
2022/09/04 12:01:15;;;;;;;10.75;3.95;;;28.60;99.90;;;;;;5014399;28;20045;-45
2022/09/04 12:04:05;;;;;;;8.90;2.85;;;28.70;99.90;;;;;;5014508;28;20030;-45
2022/09/04 12:07:20;;;;;;;10.20;2.95;;;28.70;99.90;;;;;;5014237;28;20030;-46
2022/09/04 12:09:50;;;;;;;13.50;3.72;;;28.70;99.90;;;;;;5014399;28;20037;-47
2022/09/04 12:12:27;;;;;;;11.65;4.57;;;28.80;99.90;;;;;;5014442;28;20041;-48
2022/09/04 12:15:05;;;;;;;17.45;6.50;;;28.90;99.90;;;;;;5013232;28;20050;-47
2022/09/04 12:17:54;;;;;;;16.40;9.75;;;28.90;99.90;;;;;;5014167;28;20022;-46
2022/09/04 12:20:57;;;;;;;9.80;3.95;;;28.90;99.90;;;;;;4966019;28;20061;-47
2022/09/04 12:23:49;;;;;;;12.80;5.40;;;28.90;99.90;;;;;;5014224;28;20084;-47
2022/09/04 12:26:20;;;;;;;10.05;2.88;;;28.90;99.90;;;;;;5013974;28;20101;-47
2022/09/04 12:29:05;;;;;;;10.60;3.70;;;29.00;99.90;;;;;;5014287;28;20042;-47
2022/09/04 12:31:41;;;;;;;17.90;4.10;;;29.00;99.90;;;;;;5013812;28;20022;-47
2022/09/04 12:34:22;;;;;;;12.20;3.67;;;29.10;99.90;;;;;;5013950;28;20037;-47
2022/09/04 12:37:23;;;;;;;7.97;2.80;;;29.10;99.90;;;;;;5013955;28;20033;-47
2022/09/04 12:40:00;;;;;;;7.70;3.28;;;29.10;99.90;;;;;;4933893;29;20472;-47
2022/09/04 12:42:38;;;;;;;9.52;2.83;;;29.20;99.90;;;;;;5003291;28;20037;-47
2022/09/04 12:45:31;;;;;;;17.70;4.43;;;29.30;99.90;;;;;;5013512;28;20402;-48
2022/09/04 12:48:41;;;;;;;18.58;3.60;;;29.30;99.90;;;;;;5013601;28;20496;-47
2022/09/04 12:51:25;;;;;;;11.25;5.75;;;29.30;99.90;;;;;;4983127;28;20046;-47
2022/09/04 12:54:18;;;;;;;11.43;5.10;;;29.30;99.90;;;;;;5013387;28;20034;-47
2022/09/04 12:56:47;;;;;;;9.73;4.43;;;29.40;99.90;;;;;;5013357;28;20029;-47
2022/09/04 12:59:37;;;;;;;12.00;4.07;;;29.50;99.90;;;;;;5013382;28;20022;-47
2022/09/04 13:02:28;;;;;;;9.65;4.20;;;29.50;99.90;;;;;;5001897;28;20414;-47
2022/09/04 13:05:23;;;;;;;12.00;3.30;;;29.50;99.90;;;;;;5013340;28;20022;-47
2022/09/04 13:07:56;;;;;;;10.27;2.75;;;29.50;99.90;;;;;;5004548;28;20505;-47
2022/09/04 13:11:00;;;;;;;10.45;3.20;;;29.60;99.90;;;;;;5013364;28;20561;-47
2022/09/04 13:13:34;;;;;;;12.30;4.38;;;29.60;99.90;;;;;;4969586;28;20053;-47
2022/09/04 13:16:15;;;;;;;48.00;30.88;;;29.70;99.90;;;;;;5011882;28;20033;-47
2022/09/04 13:19:04;;;;;;;14.88;8.52;;;29.70;99.90;;;;;;5013357;28;20151;-47
2022/09/04 13:21:55;;;;;;;12.82;5.45;;;29.70;99.90;;;;;;5013510;28;20084;-47
2022/09/04 13:24:30;;;;;;;7.95;2.85;;;29.70;99.90;;;;;;5013712;28;20494;-47
2022/09/04 13:27:25;;;;;;;11.98;4.53;;;29.70;99.90;;;;;;5012867;28;20432;-47
2022/09/04 13:30:11;;;;;;;9.80;2.90;;;29.70;99.90;;;;;;5013020;28;20038;-47
2022/09/04 13:33:04;;;;;;;10.82;4.22;;;29.70;99.90;;;;;;5012815;28;20024;-47
2022/09/04 13:35:37;;;;;;;8.77;3.60;;;29.70;99.90;;;;;;5012807;28;20466;-47
2022/09/04 13:38:40;;;;;;;13.63;5.68;;;29.70;99.90;;;;;;5012872;28;20054;-47
2022/09/04 13:41:33;;;;;;;12.65;3.85;;;29.70;99.90;;;;;;5012630;28;20480;-47
2022/09/04 13:44:14;;;;;;;10.00;3.65;;;29.70;99.90;;;;;;5012607;28;20030;-47
2022/09/04 13:46:49;;;;;;;9.77;2.40;;;29.70;99.90;;;;;;5012627;28;20084;-47
2022/09/04 13:49:20;;;;;;;11.23;4.22;;;29.70;99.90;;;;;;5013175;28;20402;-47
2022/09/04 13:52:37;;;;;;;10.48;3.60;;;29.60;99.90;;;;;;5012459;28;20478;-47
2022/09/04 13:55:14;;;;;;;15.35;4.70;;;29.70;99.90;;;;;;4933180;29;20441;-47
2022/09/04 13:58:09;;;;;;;8.32;3.67;;;29.70;99.90;;;;;;4932703;29;20106;-47
2022/09/04 14:00:44;;;;;;;8.70;3.10;;;29.70;99.90;;;;;;4994521;28;20045;-47
2022/09/04 14:03:31;;;;;;;6.85;2.42;;;29.70;99.90;;;;;;5012295;28;20437;-46
2022/09/04 14:05:58;;;;;;;6.63;2.55;;;29.70;99.90;;;;;;5002523;28;20049;-46
2022/09/04 14:08:30;;;;;;;6.95;3.20;;;29.70;99.90;;;;;;5023546;28;20036;-46
2022/09/04 14:11:17;;;;;;;9.32;3.90;;;29.70;99.90;;;;;;5018599;28;20108;-47
2022/09/04 14:13:45;;;;;;;;;;;29.70;99.90;;;;;;5006476;28;20061;-46
2022/09/04 14:16:13;;;;;;;8.02;2.38;;;29.70;99.90;;;;;;4992316;28;20345;-47
2022/09/04 14:19:08;;;;;;;14.35;3.92;;;29.70;99.90;;;;;;4992740;28;20054;-46
2022/09/04 14:22:01;;;;;;;10.43;2.05;;;29.70;99.90;;;;;;4997253;28;20066;-45
2022/09/04 14:24:42;;;;;;;9.65;2.50;;;29.70;99.90;;;;;;4999489;28;20537;-45
2022/09/04 14:27:26;;;;;;;12.73;4.97;;;29.70;99.90;;;;;;4996185;28;20034;-46